Time;durP1;ratioP1;P1;durP2;ratioP2;P2;SDS_P1;SDS_P2;PMS_P1;PMS_P2;Temp;Humidity;BMP_temperature;BMP_pressure;BME280_temperature;BME280_humidity;BME280_pressure;Samples;Min_cycle;Max_cycle;Signal;HPM_P1;HPM_P2
2022/01/08 00:01:47;;;;;;;81.73;28.17;;;;;;;;;;6268629;28;20024;-81
2022/01/08 00:04:48;;;;;;;67.23;27.83;;;;;;;;;;6267864;28;20044;-81
2022/01/08 00:07:48;;;;;;;57.43;26.80;;;;;;;;;;6255077;28;20053;-81
2022/01/08 00:10:48;;;;;;;66.73;26.63;;;;;;;;;;6246310;28;20013;-82
2022/01/08 00:13:49;;;;;;;71.70;28.47;;;;;;;;;;6250697;28;20022;-82
2022/01/08 00:16:49;;;;;;;48.73;21.50;;;;;;;;;;6286168;28;20032;-81
2022/01/08 00:19:50;;;;;;;72.00;28.67;;;;;;;;;;6296369;28;20021;-81
2022/01/08 00:22:52;;;;;;;58.43;24.83;;;;;;;;;;6262781;28;20022;-81
2022/01/08 00:25:52;;;;;;;64.13;27.25;;;;;;;;;;6251244;28;20029;-82
2022/01/08 00:28:52;;;;;;;71.53;26.33;;;;;;;;;;6250627;28;20029;-82
2022/01/08 00:31:53;;;;;;;57.77;24.27;;;;;;;;;;6247002;28;20060;-82
2022/01/08 00:34:53;;;;;;;71.77;24.13;;;;;;;;;;6248410;28;20029;-82
2022/01/08 00:37:53;;;;;;;56.63;24.07;;;;;;;;;;6248251;28;20080;-81
2022/01/08 00:40:54;;;;;;;55.93;24.00;;;;;;;;;;6265886;28;20469;-81
2022/01/08 00:43:54;;;;;;;54.93;22.07;;;;;;;;;;6270832;28;20021;-81
2022/01/08 00:46:54;;;;;;;55.80;24.10;;;;;;;;;;6247948;28;20097;-82
2022/01/08 00:49:55;;;;;;;58.40;21.80;;;;;;;;;;6247192;28;20492;-82
2022/01/08 00:52:55;;;;;;;45.40;19.53;;;;;;;;;;6248002;28;20101;-82
2022/01/08 00:55:55;;;;;;;57.27;24.57;;;;;;;;;;6250689;28;20027;-82
2022/01/08 00:58:56;;;;;;;70.30;26.30;;;;;;;;;;6265545;28;20021;-81
2022/01/08 01:01:56;;;;;;;73.60;27.03;;;;;;;;;;6246002;28;20013;-81
2022/01/08 01:04:56;;;;;;;49.20;20.73;;;;;;;;;;6246254;28;20025;-82
2022/01/08 01:07:57;;;;;;;56.00;20.27;;;;;;;;;;6247561;28;20025;-82
2022/01/08 01:10:57;;;;;;;63.57;24.30;;;;;;;;;;6247023;28;20029;-82
2022/01/08 01:13:57;;;;;;;59.77;24.83;;;;;;;;;;6259183;28;20025;-81
2022/01/08 01:16:57;;;;;;;57.00;21.33;;;;;;;;;;6250557;28;20396;-81
2022/01/08 01:19:58;;;;;;;64.10;25.43;;;;;;;;;;6246452;28;20113;-82
2022/01/08 01:23:06;;;;;;;79.77;33.57;;;;;;;;;;6249969;28;20477;-82
2022/01/08 01:26:10;;;;;;;76.35;30.48;;;;;;;;;;6251065;28;20025;-82
2022/01/08 01:29:27;;;;;;;79.30;32.92;;;;;;;;;;6245384;28;20032;-81
2022/01/08 01:43:24;;;;;;;61.05;22.83;;;;;;;;;;6270396;28;20029;-81
2022/01/08 01:49:07;;;;;;;59.50;24.35;;;;;;;;;;6246151;28;20416;-81
2022/01/08 01:52:09;;;;;;;51.53;21.73;;;;;;;;;;6246396;28;20040;-82
2022/01/08 01:55:09;;;;;;;53.60;23.50;;;;;;;;;;6244804;28;20036;-82
2022/01/08 01:58:10;;;;;;;59.00;24.20;;;;;;;;;;6267286;28;20021;-82
2022/01/08 02:01:10;;;;;;;50.93;22.93;;;;;;;;;;6268359;28;20033;-82
2022/01/08 02:04:11;;;;;;;57.07;23.40;;;;;;;;;;6260386;28;20489;-82
2022/01/08 02:07:11;;;;;;;68.13;25.73;;;;;;;;;;6266133;28;20100;-82
2022/01/08 02:10:11;;;;;;;64.43;24.03;;;;;;;;;;6261224;28;20013;-82
2022/01/08 02:13:20;;;;;;;68.47;26.47;;;;;;;;;;6270795;28;20561;-82
2022/01/08 02:16:20;;;;;;;53.80;22.25;;;;;;;;;;6286940;28;20321;-81
2022/01/08 02:19:21;;;;;;;65.07;24.63;;;;;;;;;;6295116;28;20021;-82
2022/01/08 02:22:21;;;;;;;53.40;19.07;;;;;;;;;;6270305;28;20022;-82
2022/01/08 02:25:22;;;;;;;46.63;20.70;;;;;;;;;;6244333;28;20053;-81
2022/01/08 02:28:22;;;;;;;48.75;19.55;;;;;;;;;;6248727;28;20018;-81
2022/01/08 02:31:23;;;;;;;48.10;20.63;;;;;;;;;;6252004;28;20448;-82
2022/01/08 02:34:26;;;;;;;47.97;19.07;;;;;;;;;;6270121;28;20025;-81
2022/01/08 02:37:30;;;;;;;49.65;19.42;;;;;;;;;;6268422;28;20047;-81
2022/01/08 02:40:30;;;;;;;49.40;22.92;;;;;;;;;;6263307;28;20033;-82
2022/01/08 02:43:38;;;;;;;42.33;20.07;;;;;;;;;;6246314;28;20030;-81
2022/01/08 02:46:40;;;;;;;37.58;19.83;;;;;;;;;;6243320;28;20108;-81
2022/01/08 02:49:40;;;;;;;;;;;;;;;;;;6245307;28;20033;-81
2022/01/08 02:52:41;;;;;;;50.40;18.92;;;;;;;;;;6248372;28;19951;-81
2022/01/08 02:55:41;;;;;;;40.35;17.80;;;;;;;;;;6246451;28;20101;-81
2022/01/08 02:58:42;;;;;;;28.07;14.90;;;;;;;;;;6294704;28;20030;-81
2022/01/08 03:01:42;;;;;;;47.23;19.70;;;;;;;;;;6293712;28;20016;-82
2022/01/08 03:04:45;;;;;;;41.33;19.70;;;;;;;;;;6294266;28;20055;-82
2022/01/08 03:07:45;;;;;;;33.47;14.98;;;;;;;;;;6294452;28;20024;-81
2022/01/08 03:10:46;;;;;;;39.27;13.93;;;;;;;;;;6273555;28;20010;-82
2022/01/08 03:13:46;;;;;;;38.57;16.00;;;;;;;;;;6244595;28;20017;-82
2022/01/08 03:16:46;;;;;;;39.97;18.53;;;;;;;;;;6244189;28;20009;-82
2022/01/08 03:19:47;;;;;;;37.27;16.37;;;;;;;;;;6244178;28;20435;-82
2022/01/08 03:22:47;;;;;;;41.30;18.60;;;;;;;;;;6246822;28;20174;-82
2022/01/08 03:25:47;;;;;;;43.20;20.40;;;;;;;;;;6246117;28;20044;-83
2022/01/08 03:28:48;;;;;;;35.37;15.63;;;;;;;;;;6271675;28;20043;-82
2022/01/08 03:31:48;;;;;;;50.83;19.87;;;;;;;;;;6253411;28;20021;-82
2022/01/08 03:34:48;;;;;;;39.87;18.23;;;;;;;;;;6256759;28;20017;-82
2022/01/08 03:37:49;;;;;;;34.83;17.40;;;;;;;;;;6267817;28;20520;-82
2022/01/08 03:40:49;;;;;;;44.23;19.70;;;;;;;;;;6268375;28;20021;-82
2022/01/08 03:43:50;;;;;;;45.27;20.57;;;;;;;;;;6267592;28;20025;-82
2022/01/08 03:46:50;;;;;;;61.53;29.10;;;;;;;;;;6268749;28;20017;-83
2022/01/08 03:49:50;;;;;;;47.83;21.47;;;;;;;;;;6267588;28;20009;-82
2022/01/08 03:52:50;;;;;;;41.40;14.93;;;;;;;;;;6267458;28;20017;-82
2022/01/08 03:55:51;;;;;;;63.07;26.27;;;;;;;;;;6274371;28;20016;-82
2022/01/08 03:58:51;;;;;;;52.80;20.87;;;;;;;;;;6271306;28;20025;-82
2022/01/08 04:01:52;;;;;;;50.07;19.30;;;;;;;;;;6273349;28;20497;-82
2022/01/08 04:04:52;;;;;;;65.77;26.93;;;;;;;;;;6272077;28;20021;-82
2022/01/08 04:07:52;;;;;;;47.10;19.73;;;;;;;;;;6273981;28;20083;-82
2022/01/08 04:10:53;;;;;;;43.20;19.97;;;;;;;;;;6262810;28;20017;-82
2022/01/08 04:13:54;;;;;;;49.63;20.53;;;;;;;;;;6271883;28;20086;-82
2022/01/08 04:16:55;;;;;;;39.95;17.95;;;;;;;;;;6251804;28;20025;-82
2022/01/08 04:19:55;;;;;;;43.63;20.57;;;;;;;;;;6258643;28;20025;-82
2022/01/08 04:22:56;;;;;;;40.87;19.17;;;;;;;;;;6269325;28;20457;-82
2022/01/08 04:25:56;;;;;;;40.23;17.93;;;;;;;;;;6271735;28;20100;-82
2022/01/08 04:28:56;;;;;;;49.83;18.57;;;;;;;;;;6249664;28;20016;-81
2022/01/08 04:31:56;;;;;;;52.00;20.13;;;;;;;;;;6262408;28;20032;-81
2022/01/08 04:34:57;;;;;;;44.33;18.37;;;;;;;;;;6272960;28;20492;-82
2022/01/08 04:37:57;;;;;;;34.50;15.63;;;;;;;;;;6271013;28;20087;-82
2022/01/08 04:40:57;;;;;;;40.30;16.17;;;;;;;;;;6271109;28;20029;-81
2022/01/08 04:43:58;;;;;;;32.00;17.13;;;;;;;;;;6269808;28;20457;-81
2022/01/08 04:46:58;;;;;;;33.60;13.27;;;;;;;;;;6247715;28;20013;-82
2022/01/08 04:49:58;;;;;;;25.53;10.87;;;;;;;;;;6247889;28;20051;-83
2022/01/08 04:52:59;;;;;;;35.43;13.10;;;;;;;;;;6269577;28;20017;-82
2022/01/08 04:55:59;;;;;;;27.93;13.03;;;;;;;;;;6268940;28;20017;-82
2022/01/08 04:59:00;;;;;;;35.03;14.97;;;;;;;;;;6247772;28;20062;-82
2022/01/08 05:02:00;;;;;;;33.73;12.97;;;;;;;;;;6245285;28;20451;-82
2022/01/08 05:05:00;;;;;;;26.90;11.03;;;;;;;;;;6247228;28;20380;-82
2022/01/08 05:08:00;;;;;;;29.23;13.53;;;;;;;;;;6246169;28;20052;-82
2022/01/08 05:11:01;;;;;;;27.07;12.33;;;;;;;;;;6253595;28;20016;-82
2022/01/08 05:14:03;;;;;;;30.13;12.00;;;;;;;;;;6255927;28;20155;-82
2022/01/08 05:17:03;;;;;;;36.63;14.55;;;;;;;;;;6268605;28;20055;-82
2022/01/08 05:20:06;;;;;;;27.00;12.67;;;;;;;;;;6270298;28;20025;-82
2022/01/08 05:23:06;;;;;;;35.72;15.10;;;;;;;;;;6268034;28;20021;-82
2022/01/08 05:26:06;;;;;;;26.77;13.37;;;;;;;;;;6271700;28;20046;-83
2022/01/08 05:29:07;;;;;;;36.13;13.70;;;;;;;;;;6246936;28;20010;-82
2022/01/08 05:32:07;;;;;;;31.63;11.73;;;;;;;;;;6246447;28;20022;-82
2022/01/08 05:35:08;;;;;;;38.50;17.33;;;;;;;;;;6245247;28;20030;-82
2022/01/08 05:38:08;;;;;;;39.07;15.30;;;;;;;;;;6245964;28;20095;-81
2022/01/08 05:41:09;;;;;;;51.60;18.77;;;;;;;;;;6245667;28;20053;-81
2022/01/08 05:44:09;;;;;;;55.53;20.92;;;;;;;;;;6248916;28;20710;-82
2022/01/08 05:47:10;;;;;;;54.73;24.03;;;;;;;;;;6269444;28;20021;-82
2022/01/08 05:50:10;;;;;;;32.50;11.87;;;;;;;;;;6268579;28;20056;-82
2022/01/08 05:53:10;;;;;;;46.03;19.80;;;;;;;;;;6271077;28;20483;-82
2022/01/08 05:56:11;;;;;;;46.43;18.00;;;;;;;;;;6271903;28;20458;-82
2022/01/08 05:59:11;;;;;;;41.13;18.33;;;;;;;;;;6271490;28;20045;-82
2022/01/08 06:02:11;;;;;;;34.03;17.33;;;;;;;;;;6270993;28;20357;-82
2022/01/08 06:05:12;;;;;;;36.40;15.60;;;;;;;;;;6270311;28;20074;-83
2022/01/08 06:08:12;;;;;;;47.63;18.17;;;;;;;;;;6269063;28;20392;-82
2022/01/08 06:11:12;;;;;;;35.97;14.97;;;;;;;;;;6258863;28;20076;-82
2022/01/08 06:14:12;;;;;;;38.77;15.97;;;;;;;;;;6245015;28;20029;-82
2022/01/08 06:17:13;;;;;;;42.77;17.67;;;;;;;;;;6244023;28;20511;-82
2022/01/08 06:20:13;;;;;;;34.93;15.53;;;;;;;;;;6244042;28;20026;-82
2022/01/08 06:23:13;;;;;;;44.03;20.70;;;;;;;;;;6261885;28;20103;-82
2022/01/08 06:26:14;;;;;;;44.97;19.43;;;;;;;;;;6275608;28;20070;-82
2022/01/08 06:29:14;;;;;;;48.53;24.20;;;;;;;;;;6269724;28;20009;-82
2022/01/08 06:32:14;;;;;;;49.03;21.70;;;;;;;;;;6248438;28;20021;-82
2022/01/08 06:35:15;;;;;;;48.78;21.75;;;;;;;;;;6245232;28;20025;-82
2022/01/08 06:38:15;;;;;;;40.17;17.20;;;;;;;;;;6243198;28;20064;-82
2022/01/08 06:41:16;;;;;;;51.77;22.53;;;;;;;;;;6244057;28;20029;-82
2022/01/08 06:44:16;;;;;;;52.20;22.17;;;;;;;;;;6248809;28;20041;-82
2022/01/08 06:47:16;;;;;;;48.07;21.23;;;;;;;;;;6269647;28;20044;-82
2022/01/08 06:50:17;;;;;;;49.07;19.10;;;;;;;;;;6261080;28;20329;-82
2022/01/08 06:53:17;;;;;;;43.60;16.97;;;;;;;;;;6244335;28;20412;-82
2022/01/08 06:56:18;;;;;;;41.53;18.13;;;;;;;;;;6259709;28;20024;-82
2022/01/08 06:59:19;;;;;;;41.20;16.70;;;;;;;;;;6247031;28;20087;-82
2022/01/08 07:02:19;;;;;;;37.38;19.60;;;;;;;;;;6254992;28;20251;-82
2022/01/08 07:05:19;;;;;;;38.30;18.50;;;;;;;;;;6256925;28;20484;-82
2022/01/08 07:08:19;;;;;;;35.63;18.83;;;;;;;;;;6261644;28;20013;-82
2022/01/08 07:11:20;;;;;;;42.35;17.15;;;;;;;;;;6258457;28;20521;-82
2022/01/08 07:14:20;;;;;;;35.35;16.17;;;;;;;;;;6255013;28;20067;-82
2022/01/08 07:17:20;;;;;;;29.87;17.03;;;;;;;;;;6262898;28;20021;-82
2022/01/08 07:20:21;;;;;;;38.67;15.98;;;;;;;;;;6268175;28;20476;-82
2022/01/08 07:23:21;;;;;;;31.00;15.32;;;;;;;;;;6264999;28;20633;-82
2022/01/08 07:26:22;;;;;;;36.10;14.95;;;;;;;;;;6256696;28;20025;-82
2022/01/08 07:29:22;;;;;;;29.55;14.15;;;;;;;;;;6251236;28;20496;-82
2022/01/08 07:32:22;;;;;;;38.83;16.23;;;;;;;;;;6253446;28;20035;-82
2022/01/08 07:35:23;;;;;;;36.83;16.45;;;;;;;;;;6260567;28;20061;-82
2022/01/08 07:38:23;;;;;;;31.98;13.73;;;;;;;;;;6250002;28;20436;-82
2022/01/08 07:41:23;;;;;;;27.42;13.13;;;;;;;;;;6253352;28;20021;-82
2022/01/08 07:44:24;;;;;;;30.88;13.65;;;;;;;;;;6251554;28;20388;-82
2022/01/08 07:47:24;;;;;;;33.22;12.98;;;;;;;;;;6258329;28;20023;-82
2022/01/08 07:50:24;;;;;;;31.65;14.70;;;;;;;;;;6258107;28;20020;-82
2022/01/08 07:53:25;;;;;;;33.75;15.30;;;;;;;;;;6243082;28;20031;-82
2022/01/08 07:56:25;;;;;;;32.17;17.05;;;;;;;;;;6257324;28;20021;-82
2022/01/08 07:59:25;;;;;;;36.53;15.50;;;;;;;;;;6251115;28;20377;-82
2022/01/08 08:02:26;;;;;;;29.13;12.55;;;;;;;;;;6241294;28;20083;-82
2022/01/08 08:05:26;;;;;;;31.85;16.98;;;;;;;;;;6248093;28;20484;-82
2022/01/08 08:08:26;;;;;;;31.48;15.50;;;;;;;;;;6259278;28;20033;-83
2022/01/08 08:11:27;;;;;;;25.83;14.40;;;;;;;;;;6253953;28;20038;-82
2022/01/08 08:14:27;;;;;;;30.60;13.90;;;;;;;;;;6255244;28;20021;-82
2022/01/08 08:17:27;;;;;;;40.05;17.65;;;;;;;;;;6255405;28;20554;-83
2022/01/08 08:20:28;;;;;;;40.30;18.23;;;;;;;;;;6250950;28;20041;-82
2022/01/08 08:23:28;;;;;;;39.50;17.98;;;;;;;;;;6258200;28;20029;-82
2022/01/08 08:26:28;;;;;;;36.10;17.58;;;;;;;;;;6249247;28;20065;-82
2022/01/08 08:29:29;;;;;;;43.42;20.83;;;;;;;;;;6245767;28;20385;-82
2022/01/08 08:32:29;;;;;;;47.42;19.70;;;;;;;;;;6256582;28;20028;-82
2022/01/08 08:35:29;;;;;;;41.88;20.25;;;;;;;;;;6241336;28;20384;-82
2022/01/08 08:38:29;;;;;;;46.35;25.90;;;;;;;;;;6243530;28;20053;-83
2022/01/08 08:41:30;;;;;;;47.50;22.83;;;;;;;;;;6263283;28;20021;-83
2022/01/08 08:44:31;;;;;;;60.38;27.85;;;;;;;;;;6254602;28;20684;-82
2022/01/08 08:47:31;;;;;;;57.83;25.48;;;;;;;;;;6255413;28;20037;-82
2022/01/08 08:50:32;;;;;;;48.70;22.40;;;;;;;;;;6250876;28;20029;-82
2022/01/08 08:53:32;;;;;;;52.30;25.13;;;;;;;;;;6251663;28;20021;-82
2022/01/08 08:56:33;;;;;;;45.50;19.38;;;;;;;;;;6253066;28;20025;-83
2022/01/08 08:59:33;;;;;;;52.92;25.85;;;;;;;;;;6251644;28;20028;-83
2022/01/08 09:02:33;;;;;;;50.97;23.23;;;;;;;;;;6261422;28;20025;-83
2022/01/08 09:05:34;;;;;;;54.03;24.63;;;;;;;;;;6252322;28;20140;-82
2022/01/08 09:08:34;;;;;;;62.40;26.27;;;;;;;;;;6260783;28;20069;-82
2022/01/08 09:11:34;;;;;;;63.40;29.73;;;;;;;;;;6262816;28;20660;-82
2022/01/08 09:14:35;;;;;;;60.60;26.30;;;;;;;;;;6255918;28;20108;-82
2022/01/08 09:17:36;;;;;;;44.67;21.00;;;;;;;;;;6260439;28;20029;-82
2022/01/08 09:20:37;;;;;;;58.53;24.40;;;;;;;;;;6259693;28;20025;-83
2022/01/08 09:23:38;;;;;;;36.15;18.60;;;;;;;;;;6267745;28;20021;-83
2022/01/08 09:26:38;;;;;;;28.85;14.95;;;;;;;;;;6266812;28;20087;-82
2022/01/08 09:29:39;;;;;;;39.75;17.05;;;;;;;;;;6258075;28;20036;-83
2022/01/08 09:32:41;;;;;;;20.58;10.15;;;;;;;;;;6270777;28;20014;-83
2022/01/08 09:35:41;;;;;;;46.90;20.60;;;;;;;;;;6268867;28;20032;-83
2022/01/08 09:38:42;;;;;;;47.53;16.63;;;;;;;;;;6247526;28;20049;-83
2022/01/08 09:41:42;;;;;;;22.20;9.90;;;;;;;;;;6253597;28;20029;-82
2022/01/08 09:44:44;;;;;;;32.20;13.13;;;;;;;;;;6254428;28;20073;-82
2022/01/08 09:47:45;;;;;;;26.95;14.35;;;;;;;;;;6253878;28;20683;-83
2022/01/08 09:50:45;;;;;;;48.38;21.27;;;;;;;;;;6258717;28;20021;-83
2022/01/08 09:53:46;;;;;;;46.10;18.33;;;;;;;;;;6250117;28;20017;-83
2022/01/08 09:56:46;;;;;;;48.90;20.75;;;;;;;;;;6251412;28;20545;-83
2022/01/08 09:59:46;;;;;;;34.53;15.73;;;;;;;;;;6252811;28;20483;-83
2022/01/08 10:02:47;;;;;;;39.40;17.90;;;;;;;;;;6259788;28;20025;-83
2022/01/08 10:05:47;;;;;;;46.28;21.17;;;;;;;;;;6249827;28;20025;-84
2022/01/08 10:08:48;;;;;;;41.08;17.50;;;;;;;;;;6251308;28;20473;-84
2022/01/08 10:11:49;;;;;;;23.08;12.48;;;;;;;;;;6258478;28;20021;-84
2022/01/08 10:18:09;;;;;;;38.70;17.45;;;;;;;;;;6269816;28;20040;-85
2022/01/08 10:21:20;;;;;;;44.63;18.40;;;;;;;;;;6261370;28;20444;-85
2022/01/08 10:24:21;;;;;;;42.28;16.58;;;;;;;;;;6244889;28;20049;-84
2022/01/08 10:27:33;;;;;;;46.90;16.30;;;;;;;;;;6248135;28;20629;-84
2022/01/08 10:30:34;;;;;;;24.80;10.10;;;;;;;;;;6242773;28;20021;-87
2022/01/08 10:33:34;;;;;;;18.80;9.65;;;;;;;;;;6248942;28;20543;-86
2022/01/08 10:36:35;;;;;;;36.00;16.50;;;;;;;;;;6247703;28;20018;-85
2022/01/08 10:39:37;;;;;;;25.20;10.80;;;;;;;;;;6259929;28;20052;-85
2022/01/08 10:42:38;;;;;;;30.38;14.57;;;;;;;;;;6259274;28;20106;-85
2022/01/08 10:45:38;;;;;;;29.67;15.00;;;;;;;;;;6253596;28;20522;-86
2022/01/08 10:48:42;;;;;;;25.38;13.88;;;;;;;;;;6249367;28;20021;-85
2022/01/08 10:51:43;;;;;;;23.40;13.45;;;;;;;;;;6258112;28;20652;-86
2022/01/08 10:54:45;;;;;;;18.73;10.38;;;;;;;;;;6260618;28;20029;-86
2022/01/08 10:57:46;;;;;;;24.55;11.70;;;;;;;;;;6261913;28;20068;-86
2022/01/08 11:00:46;;;;;;;26.48;13.32;;;;;;;;;;6268358;28;20074;-86
2022/01/08 11:03:46;;;;;;;22.27;11.02;;;;;;;;;;6268648;28;20060;-86
2022/01/08 11:06:52;;;;;;;33.55;14.63;;;;;;;;;;6265357;28;20389;-86
2022/01/08 11:09:54;;;;;;;15.85;8.32;;;;;;;;;;6251656;28;20096;-86
2022/01/08 11:12:54;;;;;;;23.77;7.63;;;;;;;;;;6250904;28;20486;-86
2022/01/08 11:15:55;;;;;;;12.57;7.68;;;;;;;;;;6247967;28;20116;-86
2022/01/08 11:18:55;;;;;;;29.75;15.82;;;;;;;;;;6242284;28;20378;-86
2022/01/08 11:21:56;;;;;;;39.70;17.65;;;;;;;;;;6248306;28;20032;-86
2022/01/08 11:24:58;;;;;;;20.85;9.68;;;;;;;;;;6268325;28;20029;-86
2022/01/08 11:28:01;;;;;;;30.92;13.63;;;;;;;;;;6268241;28;20485;-86
2022/01/08 11:31:02;;;;;;;17.00;7.60;;;;;;;;;;6257904;28;20451;-86
2022/01/08 11:34:08;;;;;;;8.85;5.90;;;;;;;;;;6251604;28;20028;-86
2022/01/08 11:37:08;;;;;;;39.80;15.57;;;;;;;;;;6258689;28;20475;-87
2022/01/08 11:40:09;;;;;;;31.38;16.35;;;;;;;;;;6259353;28;20124;-87
2022/01/08 11:43:11;;;;;;;42.05;15.95;;;;;;;;;;6249707;28;20487;-87
2022/01/08 11:46:11;;;;;;;;;;;;;;;;;;6256352;28;20020;-87
2022/01/08 11:49:11;;;;;;;31.05;14.57;;;;;;;;;;6265018;28;19959;-87
2022/01/08 11:52:20;;;;;;;49.88;22.05;;;;;;;;;;6253062;28;20028;-87
2022/01/08 11:55:49;;;;;;;34.13;17.08;;;;;;;;;;6258936;28;20026;-87
2022/01/08 11:59:10;;;;;;;34.85;15.85;;;;;;;;;;6222603;28;20044;-87
2022/01/08 12:02:12;;;;;;;32.88;16.02;;;;;;;;;;6249073;28;20672;-88
2022/01/08 12:05:13;;;;;;;11.05;5.28;;;;;;;;;;6246933;28;20017;-88
2022/01/08 12:08:15;;;;;;;26.88;9.02;;;;;;;;;;6252936;28;20016;-88
2022/01/08 12:11:16;;;;;;;19.55;8.23;;;;;;;;;;6243165;28;20045;-88
2022/01/08 12:14:16;;;;;;;27.60;10.43;;;;;;;;;;6250321;28;20021;-88
2022/01/08 12:17:18;;;;;;;20.15;10.50;;;;;;;;;;6250649;28;20092;-87
2022/01/08 12:20:41;;;;;;;28.98;12.82;;;;;;;;;;6249627;28;20075;-88
2022/01/08 12:23:44;;;;;;;33.65;13.05;;;;;;;;;;6262430;28;20025;-88
2022/01/08 12:26:44;;;;;;;22.60;10.50;;;;;;;;;;6263998;28;20063;-87
2022/01/08 12:29:44;;;;;;;29.88;12.38;;;;;;;;;;6248471;28;20022;-88
2022/01/08 12:32:48;;;;;;;31.52;12.75;;;;;;;;;;6254139;28;20454;-87
2022/01/08 12:35:50;;;;;;;32.70;16.83;;;;;;;;;;6256172;28;20519;-87
2022/01/08 12:39:00;;;;;;;24.15;12.65;;;;;;;;;;6271601;28;20180;-87
2022/01/08 12:42:18;;;;;;;15.13;8.43;;;;;;;;;;6272101;28;20020;-87
2022/01/08 12:45:29;;;;;;;20.10;11.73;;;;;;;;;;6258615;28;20112;-88
2022/01/08 12:48:30;;;;;;;45.38;18.58;;;;;;;;;;6247778;28;20909;-87
2022/01/08 12:52:03;;;;;;;38.08;19.33;;;;;;;;;;6253639;28;20021;-88
2022/01/08 12:55:10;;;;;;;37.92;15.18;;;;;;;;;;6199310;28;20084;-87
2022/01/08 12:58:12;;;;;;;23.67;9.85;;;;;;;;;;6264383;28;20028;-87
2022/01/08 13:01:13;;;;;;;17.27;9.20;;;;;;;;;;6260123;28;20036;-87
2022/01/08 13:04:17;;;;;;;31.63;12.02;;;;;;;;;;6273092;28;20421;-88
2022/01/08 13:07:21;;;;;;;40.88;17.17;;;;;;;;;;6259364;28;20013;-87
2022/01/08 13:10:30;;;;;;;21.10;10.82;;;;;;;;;;6259718;28;20413;-87
2022/01/08 13:13:49;;;;;;;38.70;18.10;;;;;;;;;;6255769;28;20139;-87
2022/01/08 13:16:50;;;;;;;36.05;13.82;;;;;;;;;;6250976;28;20036;-87
2022/01/08 13:20:00;;;;;;;48.08;18.85;;;;;;;;;;6255325;28;20116;-87
2022/01/08 13:23:00;;;;;;;42.08;16.88;;;;;;;;;;6249408;28;20424;-87
2022/01/08 13:26:00;;;;;;;38.92;18.20;;;;;;;;;;6264631;28;20025;-87
2022/01/08 13:29:02;;;;;;;49.58;19.52;;;;;;;;;;6249694;28;20017;-87
2022/01/08 13:32:04;;;;;;;44.70;21.15;;;;;;;;;;6254013;28;20140;-87
2022/01/08 13:35:04;;;;;;;44.15;21.15;;;;;;;;;;6247535;28;20029;-87
2022/01/08 13:38:05;;;;;;;45.75;18.33;;;;;;;;;;6248646;28;20046;-88
2022/01/08 13:41:12;;;;;;;47.20;19.67;;;;;;;;;;6268058;28;20076;-87
2022/01/08 13:44:13;;;;;;;39.75;18.67;;;;;;;;;;6264665;28;20068;-87
2022/01/08 13:47:17;;;;;;;50.92;20.08;;;;;;;;;;6254793;28;20030;-87
2022/01/08 13:50:21;;;;;;;46.30;18.75;;;;;;;;;;6269647;28;20040;-87
2022/01/08 13:53:22;;;;;;;43.47;20.08;;;;;;;;;;6244941;28;20362;-87
2022/01/08 13:56:23;;;;;;;46.58;21.15;;;;;;;;;;6252198;28;20059;-87
2022/01/08 13:59:23;;;;;;;44.25;16.33;;;;;;;;;;6254164;28;20041;-86
2022/01/08 14:02:32;;;;;;;34.13;13.45;;;;;;;;;;6249458;28;20025;-86
2022/01/08 14:05:33;;;;;;;47.10;19.25;;;;;;;;;;6254146;28;20033;-88
2022/01/08 14:08:34;;;;;;;45.00;19.38;;;;;;;;;;6249648;28;20028;-87
2022/01/08 14:11:34;;;;;;;43.20;18.73;;;;;;;;;;6268849;28;20021;-87
2022/01/08 14:14:48;;;;;;;68.93;28.05;;;;;;;;;;6267401;28;20051;-86
2022/01/08 14:17:48;;;;;;;49.50;21.55;;;;;;;;;;6255877;28;20155;-87
2022/01/08 14:20:52;;;;;;;48.13;19.48;;;;;;;;;;6263176;28;20025;-87
2022/01/08 14:23:53;;;;;;;53.65;26.17;;;;;;;;;;6244825;28;20029;-87
2022/01/08 14:27:12;;;;;;;73.93;32.90;;;;;;;;;;6255717;28;20028;-87
2022/01/08 14:30:13;;;;;;;67.03;31.52;;;;;;;;;;6262939;28;20119;-86
2022/01/08 14:33:14;;;;;;;53.05;26.27;;;;;;;;;;6267579;28;20370;-87
2022/01/08 14:36:14;;;;;;;49.30;23.48;;;;;;;;;;6260068;28;20026;-86
2022/01/08 14:39:16;;;;;;;44.15;21.42;;;;;;;;;;6244220;28;20050;-87
2022/01/08 14:42:17;;;;;;;47.28;23.55;;;;;;;;;;6249462;28;20030;-87
2022/01/08 14:45:18;;;;;;;241.20;101.32;;;;;;;;;;6257102;28;20029;-87
2022/01/08 14:48:29;;;;;;;223.23;77.50;;;;;;;;;;6256349;28;20029;-87
2022/01/08 14:51:30;;;;;;;105.38;38.35;;;;;;;;;;6257734;28;20271;-87
2022/01/08 14:54:33;;;;;;;72.50;30.73;;;;;;;;;;6252371;28;20017;-87
2022/01/08 14:57:33;;;;;;;54.47;26.13;;;;;;;;;;6259792;28;20040;-87
2022/01/08 15:00:34;;;;;;;53.55;26.17;;;;;;;;;;6250739;28;20029;-86
2022/01/08 15:03:34;;;;;;;50.08;22.75;;;;;;;;;;6242532;28;20079;-87
2022/01/08 15:06:34;;;;;;;42.10;21.02;;;;;;;;;;6247069;28;20031;-87
2022/01/08 15:09:35;;;;;;;45.53;20.00;;;;;;;;;;6262649;28;20036;-87
2022/01/08 15:12:36;;;;;;;48.53;23.75;;;;;;;;;;6255339;28;20326;-86
2022/01/08 15:15:37;;;;;;;63.72;29.15;;;;;;;;;;6256624;28;20565;-87
2022/01/08 15:18:37;;;;;;;79.38;36.47;;;;;;;;;;6242750;28;20021;-87
2022/01/08 15:21:41;;;;;;;75.78;32.25;;;;;;;;;;6245041;28;20013;-88
2022/01/08 15:24:41;;;;;;;70.68;28.08;;;;;;;;;;6241973;28;20036;-87
2022/01/08 15:27:41;;;;;;;55.45;25.88;;;;;;;;;;6248691;28;20381;-87
2022/01/08 15:30:42;;;;;;;65.95;28.83;;;;;;;;;;6241714;28;20018;-87
2022/01/08 15:33:42;;;;;;;52.55;23.48;;;;;;;;;;6240741;28;20033;-87
2022/01/08 15:36:42;;;;;;;72.10;31.65;;;;;;;;;;6242626;28;20060;-87
2022/01/08 15:39:43;;;;;;;65.20;29.38;;;;;;;;;;6256987;28;20448;-87
2022/01/08 15:42:43;;;;;;;59.58;23.35;;;;;;;;;;6265900;28;20029;-86
2022/01/08 15:45:45;;;;;;;63.90;27.45;;;;;;;;;;6248082;28;20025;-87
2022/01/08 15:48:45;;;;;;;56.10;25.52;;;;;;;;;;6249204;28;20026;-87
2022/01/08 15:51:45;;;;;;;65.95;24.50;;;;;;;;;;6259615;28;20658;-87
2022/01/08 15:54:46;;;;;;;38.28;17.35;;;;;;;;;;6258849;28;20029;-87
2022/01/08 15:57:47;;;;;;;48.78;22.60;;;;;;;;;;6263137;28;20028;-87
2022/01/08 16:00:47;;;;;;;57.13;26.45;;;;;;;;;;6260790;28;20028;-87
2022/01/08 16:03:47;;;;;;;71.95;35.80;;;;;;;;;;6268902;28;20017;-87
2022/01/08 16:06:50;;;;;;;74.72;33.17;;;;;;;;;;6257767;28;20033;-87
2022/01/08 16:09:50;;;;;;;93.00;37.80;;;;;;;;;;6275586;28;20017;-87
2022/01/08 16:12:50;;;;;;;97.03;43.10;;;;;;;;;;6257668;28;20032;-87
2022/01/08 16:15:51;;;;;;;99.15;42.92;;;;;;;;;;6287772;28;20032;-87
2022/01/08 16:18:53;;;;;;;105.97;48.25;;;;;;;;;;6264123;28;20033;-87
2022/01/08 16:21:53;;;;;;;107.78;49.08;;;;;;;;;;6268785;28;20040;-86
2022/01/08 16:24:54;;;;;;;110.03;49.22;;;;;;;;;;6254332;28;20027;-87
2022/01/08 16:27:54;;;;;;;214.65;90.10;;;;;;;;;;6255045;28;20377;-87
2022/01/08 16:30:55;;;;;;;216.00;91.20;;;;;;;;;;6250476;28;20120;-87
2022/01/08 16:33:55;;;;;;;185.50;81.82;;;;;;;;;;6259131;28;20025;-87
2022/01/08 16:36:55;;;;;;;168.27;75.75;;;;;;;;;;6249228;28;20108;-87
2022/01/08 16:39:55;;;;;;;149.55;68.65;;;;;;;;;;6256746;28;20657;-87
2022/01/08 16:42:56;;;;;;;141.52;67.97;;;;;;;;;;6254556;28;20024;-87
2022/01/08 16:45:58;;;;;;;95.47;40.72;;;;;;;;;;6264471;28;20037;-87
2022/01/08 16:48:58;;;;;;;88.53;39.90;;;;;;;;;;6274139;28;20021;-87
2022/01/08 16:51:58;;;;;;;108.00;48.15;;;;;;;;;;6254707;28;20090;-87
2022/01/08 16:54:59;;;;;;;100.88;46.38;;;;;;;;;;6254828;28;20025;-87
2022/01/08 16:57:59;;;;;;;131.60;54.08;;;;;;;;;;6272799;28;20029;-87
2022/01/08 17:01:00;;;;;;;91.20;39.35;;;;;;;;;;6246493;28;20024;-87
2022/01/08 17:04:00;;;;;;;101.97;40.65;;;;;;;;;;6246290;28;20065;-87
2022/01/08 17:07:02;;;;;;;58.00;26.95;;;;;;;;;;6246381;28;20025;-87
2022/01/08 17:10:02;;;;;;;;;;;;;;;;;;6246468;28;20030;-87
2022/01/08 17:13:03;;;;;;;57.25;28.42;;;;;;;;;;6246490;28;19944;-87
2022/01/08 17:16:03;;;;;;;60.20;25.67;;;;;;;;;;6245448;28;20069;-87
2022/01/08 17:19:03;;;;;;;68.18;28.20;;;;;;;;;;6254603;28;20036;-87
2022/01/08 17:22:04;;;;;;;55.42;24.38;;;;;;;;;;6263720;28;20025;-86
2022/01/08 17:25:04;;;;;;;54.78;22.50;;;;;;;;;;6258419;28;20155;-87
2022/01/08 17:28:04;;;;;;;44.28;20.55;;;;;;;;;;6253620;28;20024;-87
2022/01/08 17:31:05;;;;;;;58.05;24.35;;;;;;;;;;6247182;28;20017;-87
2022/01/08 17:34:05;;;;;;;56.63;21.83;;;;;;;;;;6244688;28;20401;-87
2022/01/08 17:37:05;;;;;;;50.72;22.98;;;;;;;;;;6257329;28;20096;-87
2022/01/08 17:40:06;;;;;;;59.28;27.83;;;;;;;;;;6250091;28;20164;-87
2022/01/08 17:43:06;;;;;;;68.95;31.30;;;;;;;;;;6244040;28;20128;-86
2022/01/08 17:46:06;;;;;;;84.97;36.47;;;;;;;;;;6263571;28;20032;-87
2022/01/08 17:49:08;;;;;;;76.85;38.42;;;;;;;;;;6256404;28;20021;-87
2022/01/08 17:52:08;;;;;;;57.10;30.35;;;;;;;;;;6264542;28;20033;-87
2022/01/08 17:55:09;;;;;;;59.88;30.70;;;;;;;;;;6269788;28;20036;-86